sensor_id;sensor_type;location;lat;lon;timestamp;temperature;humidity
32446;DHT22;18899;50.748;7.102;2023-04-28T00:00:48;13.00;99.90
32446;DHT22;18899;50.748;7.102;2023-04-28T00:03:14;13.00;99.90
32446;DHT22;18899;50.748;7.102;2023-04-28T00:05:40;13.10;99.90
32446;DHT22;18899;50.748;7.102;2023-04-28T00:08:06;13.00;99.90
32446;DHT22;18899;50.748;7.102;2023-04-28T00:10:32;13.00;99.90
32446;DHT22;18899;50.748;7.102;2023-04-28T00:12:57;12.90;99.90
32446;DHT22;18899;50.748;7.102;2023-04-28T00:15:23;12.80;99.90
32446;DHT22;18899;50.748;7.102;2023-04-28T00:17:48;12.80;99.90
32446;DHT22;18899;50.748;7.102;2023-04-28T00:20:14;12.70;99.90
32446;DHT22;18899;50.748;7.102;2023-04-28T00:22:40;12.70;99.90
32446;DHT22;18899;50.748;7.102;2023-04-28T00:25:06;12.70;99.90
32446;DHT22;18899;50.748;7.102;2023-04-28T00:27:33;12.70;99.90
32446;DHT22;18899;50.748;7.102;2023-04-28T00:29:58;12.60;99.90
32446;DHT22;18899;50.748;7.102;2023-04-28T00:32:24;12.70;99.90
32446;DHT22;18899;50.748;7.102;2023-04-28T00:34:49;12.80;99.90
32446;DHT22;18899;50.748;7.102;2023-04-28T00:37:16;13.00;99.90
32446;DHT22;18899;50.748;7.102;2023-04-28T00:39:41;13.00;99.90
32446;DHT22;18899;50.748;7.102;2023-04-28T00:42:11;13.00;99.90
32446;DHT22;18899;50.748;7.102;2023-04-28T00:44:37;13.20;99.90
32446;DHT22;18899;50.748;7.102;2023-04-28T00:47:03;13.20;99.90
32446;DHT22;18899;50.748;7.102;2023-04-28T00:49:29;13.30;99.90
32446;DHT22;18899;50.748;7.102;2023-04-28T00:51:55;13.40;99.90
32446;DHT22;18899;50.748;7.102;2023-04-28T00:54:21;13.50;99.90
32446;DHT22;18899;50.748;7.102;2023-04-28T00:56:47;13.50;99.90
32446;DHT22;18899;50.748;7.102;2023-04-28T00:59:13;13.60;99.90
32446;DHT22;18899;50.748;7.102;2023-04-28T01:01:39;13.40;99.90
32446;DHT22;18899;50.748;7.102;2023-04-28T01:04:05;13.30;99.90
32446;DHT22;18899;50.748;7.102;2023-04-28T01:06:31;13.30;99.90
32446;DHT22;18899;50.748;7.102;2023-04-28T01:08:57;13.30;99.90
32446;DHT22;18899;50.748;7.102;2023-04-28T01:11:22;13.30;99.90
32446;DHT22;18899;50.748;7.102;2023-04-28T01:13:48;13.20;99.90
32446;DHT22;18899;50.748;7.102;2023-04-28T01:16:13;13.30;99.90
32446;DHT22;18899;50.748;7.102;2023-04-28T01:18:42;13.40;99.90
32446;DHT22;18899;50.748;7.102;2023-04-28T01:21:09;13.40;99.90
32446;DHT22;18899;50.748;7.102;2023-04-28T01:23:35;13.40;99.90
32446;DHT22;18899;50.748;7.102;2023-04-28T01:26:00;13.40;99.90
32446;DHT22;18899;50.748;7.102;2023-04-28T01:28:27;13.40;99.90
32446;DHT22;18899;50.748;7.102;2023-04-28T01:30:53;13.30;99.90
32446;DHT22;18899;50.748;7.102;2023-04-28T01:33:19;13.30;99.90
32446;DHT22;18899;50.748;7.102;2023-04-28T01:35:45;13.30;99.90
32446;DHT22;18899;50.748;7.102;2023-04-28T01:38:10;13.30;99.90
32446;DHT22;18899;50.748;7.102;2023-04-28T01:40:36;13.20;99.90
32446;DHT22;18899;50.748;7.102;2023-04-28T01:43:02;12.90;99.90
32446;DHT22;18899;50.748;7.102;2023-04-28T01:45:27;12.80;99.90
32446;DHT22;18899;50.748;7.102;2023-04-28T01:47:52;12.80;99.90
32446;DHT22;18899;50.748;7.102;2023-04-28T01:50:18;12.70;99.90
32446;DHT22;18899;50.748;7.102;2023-04-28T01:52:43;12.60;99.90
32446;DHT22;18899;50.748;7.102;2023-04-28T01:55:09;12.60;99.90
32446;DHT22;18899;50.748;7.102;2023-04-28T01:57:35;12.60;99.90
32446;DHT22;18899;50.748;7.102;2023-04-28T02:00:02;12.50;99.90
32446;DHT22;18899;50.748;7.102;2023-04-28T02:02:29;12.50;99.90
32446;DHT22;18899;50.748;7.102;2023-04-28T02:04:55;12.50;99.90
32446;DHT22;18899;50.748;7.102;2023-04-28T02:07:22;12.50;99.90
32446;DHT22;18899;50.748;7.102;2023-04-28T02:09:47;12.40;99.90
32446;DHT22;18899;50.748;7.102;2023-04-28T02:12:13;12.30;99.90
32446;DHT22;18899;50.748;7.102;2023-04-28T02:14:39;12.50;99.90
32446;DHT22;18899;50.748;7.102;2023-04-28T02:17:04;12.50;99.90
32446;DHT22;18899;50.748;7.102;2023-04-28T02:19:30;12.30;99.90
32446;DHT22;18899;50.748;7.102;2023-04-28T02:21:56;12.30;99.90
32446;DHT22;18899;50.748;7.102;2023-04-28T02:24:21;12.40;99.90
32446;DHT22;18899;50.748;7.102;2023-04-28T02:26:47;12.50;99.90
32446;DHT22;18899;50.748;7.102;2023-04-28T02:29:13;12.40;99.90
32446;DHT22;18899;50.748;7.102;2023-04-28T02:31:38;12.30;99.90
32446;DHT22;18899;50.748;7.102;2023-04-28T02:34:04;12.30;99.90
32446;DHT22;18899;50.748;7.102;2023-04-28T02:36:30;12.30;99.90
32446;DHT22;18899;50.748;7.102;2023-04-28T02:38:56;12.30;99.90
32446;DHT22;18899;50.748;7.102;2023-04-28T02:41:22;12.30;99.90
32446;DHT22;18899;50.748;7.102;2023-04-28T02:43:47;12.40;99.90
32446;DHT22;18899;50.748;7.102;2023-04-28T02:46:13;12.40;99.90
32446;DHT22;18899;50.748;7.102;2023-04-28T02:48:38;12.50;99.90
32446;DHT22;18899;50.748;7.102;2023-04-28T02:51:05;12.40;99.90
32446;DHT22;18899;50.748;7.102;2023-04-28T02:53:30;12.40;99.90
32446;DHT22;18899;50.748;7.102;2023-04-28T02:55:56;12.30;99.90
32446;DHT22;18899;50.748;7.102;2023-04-28T02:58:21;12.20;99.90
32446;DHT22;18899;50.748;7.102;2023-04-28T03:00:47;12.00;99.90
32446;DHT22;18899;50.748;7.102;2023-04-28T03:03:13;11.90;99.90
32446;DHT22;18899;50.748;7.102;2023-04-28T03:05:38;11.90;99.90
32446;DHT22;18899;50.748;7.102;2023-04-28T03:08:04;11.80;99.90
32446;DHT22;18899;50.748;7.102;2023-04-28T03:10:30;11.90;99.90
32446;DHT22;18899;50.748;7.102;2023-04-28T03:12:56;11.90;99.90
32446;DHT22;18899;50.748;7.102;2023-04-28T03:15:21;11.90;99.90
32446;DHT22;18899;50.748;7.102;2023-04-28T03:17:47;11.80;99.90
32446;DHT22;18899;50.748;7.102;2023-04-28T03:20:12;11.70;99.90
32446;DHT22;18899;50.748;7.102;2023-04-28T03:22:38;11.70;99.90
32446;DHT22;18899;50.748;7.102;2023-04-28T03:25:04;11.70;99.90
32446;DHT22;18899;50.748;7.102;2023-04-28T03:27:30;11.70;99.90
32446;DHT22;18899;50.748;7.102;2023-04-28T03:29:56;11.70;99.90
32446;DHT22;18899;50.748;7.102;2023-04-28T03:32:21;11.50;99.90
32446;DHT22;18899;50.748;7.102;2023-04-28T03:34:47;11.50;99.90
32446;DHT22;18899;50.748;7.102;2023-04-28T03:37:12;11.60;99.90
32446;DHT22;18899;50.748;7.102;2023-04-28T03:39:38;11.70;99.90
32446;DHT22;18899;50.748;7.102;2023-04-28T03:42:04;11.70;99.90
32446;DHT22;18899;50.748;7.102;2023-04-28T03:44:29;11.80;99.90
32446;DHT22;18899;50.748;7.102;2023-04-28T03:46:55;11.70;99.90
32446;DHT22;18899;50.748;7.102;2023-04-28T03:49:21;11.60;99.90
32446;DHT22;18899;50.748;7.102;2023-04-28T03:51:46;11.60;99.90
32446;DHT22;18899;50.748;7.102;2023-04-28T03:54:12;11.60;99.90
32446;DHT22;18899;50.748;7.102;2023-04-28T03:56:38;11.40;99.90
32446;DHT22;18899;50.748;7.102;2023-04-28T03:59:03;11.40;99.90
32446;DHT22;18899;50.748;7.102;2023-04-28T04:01:29;11.40;99.90
32446;DHT22;18899;50.748;7.102;2023-04-28T04:03:55;11.50;99.90
32446;DHT22;18899;50.748;7.102;2023-04-28T04:06:20;11.50;99.90
32446;DHT22;18899;50.748;7.102;2023-04-28T04:08:46;11.30;99.90
32446;DHT22;18899;50.748;7.102;2023-04-28T04:11:12;11.10;99.90
32446;DHT22;18899;50.748;7.102;2023-04-28T04:13:37;11.00;99.90
32446;DHT22;18899;50.748;7.102;2023-04-28T04:16:03;11.00;99.90
32446;DHT22;18899;50.748;7.102;2023-04-28T04:18:29;10.90;99.90
32446;DHT22;18899;50.748;7.102;2023-04-28T04:20:54;10.90;99.90
32446;DHT22;18899;50.748;7.102;2023-04-28T04:23:21;10.90;99.90
32446;DHT22;18899;50.748;7.102;2023-04-28T04:25:47;10.90;99.90
32446;DHT22;18899;50.748;7.102;2023-04-28T04:28:13;10.90;99.90
32446;DHT22;18899;50.748;7.102;2023-04-28T04:30:38;11.00;99.90
32446;DHT22;18899;50.748;7.102;2023-04-28T04:33:04;11.00;99.90
32446;DHT22;18899;50.748;7.102;2023-04-28T04:35:30;11.00;99.90
32446;DHT22;18899;50.748;7.102;2023-04-28T04:37:55;11.00;99.90
32446;DHT22;18899;50.748;7.102;2023-04-28T04:40:21;11.00;99.90
32446;DHT22;18899;50.748;7.102;2023-04-28T04:42:46;11.20;99.90
32446;DHT22;18899;50.748;7.102;2023-04-28T04:45:12;11.20;99.90
32446;DHT22;18899;50.748;7.102;2023-04-28T04:47:37;11.20;99.90
32446;DHT22;18899;50.748;7.102;2023-04-28T04:50:04;11.30;99.90
32446;DHT22;18899;50.748;7.102;2023-04-28T04:52:30;11.30;99.90
32446;DHT22;18899;50.748;7.102;2023-04-28T04:54:55;11.40;99.90
32446;DHT22;18899;50.748;7.102;2023-04-28T04:57:21;11.40;99.90
32446;DHT22;18899;50.748;7.102;2023-04-28T04:59:47;11.30;99.90
32446;DHT22;18899;50.748;7.102;2023-04-28T05:02:12;11.40;99.90
32446;DHT22;18899;50.748;7.102;2023-04-28T05:04:38;11.50;99.90
32446;DHT22;18899;50.748;7.102;2023-04-28T05:07:03;11.40;99.90
32446;DHT22;18899;50.748;7.102;2023-04-28T05:09:29;11.30;99.90
32446;DHT22;18899;50.748;7.102;2023-04-28T05:11:56;11.40;99.90
32446;DHT22;18899;50.748;7.102;2023-04-28T05:14:22;11.40;99.90
32446;DHT22;18899;50.748;7.102;2023-04-28T05:16:48;11.40;99.90
32446;DHT22;18899;50.748;7.102;2023-04-28T05:19:13;11.50;99.90
32446;DHT22;18899;50.748;7.102;2023-04-28T05:21:39;11.40;99.90
32446;DHT22;18899;50.748;7.102;2023-04-28T05:24:05;11.50;99.90
32446;DHT22;18899;50.748;7.102;2023-04-28T05:26:30;11.50;99.90
32446;DHT22;18899;50.748;7.102;2023-04-28T05:28:56;11.60;99.90
32446;DHT22;18899;50.748;7.102;2023-04-28T05:31:21;11.60;99.90
32446;DHT22;18899;50.748;7.102;2023-04-28T05:33:47;11.50;99.90
32446;DHT22;18899;50.748;7.102;2023-04-28T05:36:12;11.40;99.90
32446;DHT22;18899;50.748;7.102;2023-04-28T05:38:41;11.30;99.90
32446;DHT22;18899;50.748;7.102;2023-04-28T05:41:07;11.30;99.90
32446;DHT22;18899;50.748;7.102;2023-04-28T05:43:32;11.00;99.90
32446;DHT22;18899;50.748;7.102;2023-04-28T05:45:58;10.80;99.90
32446;DHT22;18899;50.748;7.102;2023-04-28T05:48:23;10.70;99.90
32446;DHT22;18899;50.748;7.102;2023-04-28T05:50:49;10.60;99.90
32446;DHT22;18899;50.748;7.102;2023-04-28T05:53:14;10.50;99.90
32446;DHT22;18899;50.748;7.102;2023-04-28T05:55:40;10.50;99.90
32446;DHT22;18899;50.748;7.102;2023-04-28T05:58:05;10.50;99.90
32446;DHT22;18899;50.748;7.102;2023-04-28T06:00:32;10.50;99.90
32446;DHT22;18899;50.748;7.102;2023-04-28T06:02:59;10.50;99.90
32446;DHT22;18899;50.748;7.102;2023-04-28T06:05:24;10.50;99.90
32446;DHT22;18899;50.748;7.102;2023-04-28T06:07:50;10.50;99.90
32446;DHT22;18899;50.748;7.102;2023-04-28T06:10:16;10.60;99.90
32446;DHT22;18899;50.748;7.102;2023-04-28T06:12:41;10.80;99.90
32446;DHT22;18899;50.748;7.102;2023-04-28T06:15:07;10.90;99.90
32446;DHT22;18899;50.748;7.102;2023-04-28T06:17:33;10.80;99.90
32446;DHT22;18899;50.748;7.102;2023-04-28T06:19:58;10.90;99.90
32446;DHT22;18899;50.748;7.102;2023-04-28T06:22:24;10.90;99.90
32446;DHT22;18899;50.748;7.102;2023-04-28T06:24:50;10.90;99.90
32446;DHT22;18899;50.748;7.102;2023-04-28T06:27:16;10.90;99.90
32446;DHT22;18899;50.748;7.102;2023-04-28T06:29:42;11.00;99.90
32446;DHT22;18899;50.748;7.102;2023-04-28T06:32:08;11.20;99.90
32446;DHT22;18899;50.748;7.102;2023-04-28T06:34:34;11.50;99.90
32446;DHT22;18899;50.748;7.102;2023-04-28T06:37:00;11.80;99.90
32446;DHT22;18899;50.748;7.102;2023-04-28T06:39:25;12.00;99.90
32446;DHT22;18899;50.748;7.102;2023-04-28T06:41:51;12.20;99.90
32446;DHT22;18899;50.748;7.102;2023-04-28T06:44:17;12.30;99.90
32446;DHT22;18899;50.748;7.102;2023-04-28T06:46:43;12.50;99.90
32446;DHT22;18899;50.748;7.102;2023-04-28T06:49:08;12.50;99.90
32446;DHT22;18899;50.748;7.102;2023-04-28T06:51:34;12.80;99.90
32446;DHT22;18899;50.748;7.102;2023-04-28T06:53:59;13.00;99.90
32446;DHT22;18899;50.748;7.102;2023-04-28T06:56:25;13.10;99.90
32446;DHT22;18899;50.748;7.102;2023-04-28T06:58:51;13.10;99.90
32446;DHT22;18899;50.748;7.102;2023-04-28T07:01:17;13.20;99.90
32446;DHT22;18899;50.748;7.102;2023-04-28T07:03:42;13.40;99.90
32446;DHT22;18899;50.748;7.102;2023-04-28T07:06:08;13.50;99.90
32446;DHT22;18899;50.748;7.102;2023-04-28T07:08:34;13.70;99.90
32446;DHT22;18899;50.748;7.102;2023-04-28T07:11:01;14.00;99.90
32446;DHT22;18899;50.748;7.102;2023-04-28T07:13:30;14.20;99.90
32446;DHT22;18899;50.748;7.102;2023-04-28T07:15:56;14.30;99.90
32446;DHT22;18899;50.748;7.102;2023-04-28T07:18:22;14.20;99.90
32446;DHT22;18899;50.748;7.102;2023-04-28T07:20:47;14.30;99.90
32446;DHT22;18899;50.748;7.102;2023-04-28T07:23:13;14.70;99.90
32446;DHT22;18899;50.748;7.102;2023-04-28T07:25:39;15.10;99.90
32446;DHT22;18899;50.748;7.102;2023-04-28T07:28:08;15.50;99.90
32446;DHT22;18899;50.748;7.102;2023-04-28T07:30:34;15.90;99.90
32446;DHT22;18899;50.748;7.102;2023-04-28T07:33:00;16.30;99.90
32446;DHT22;18899;50.748;7.102;2023-04-28T07:35:27;16.50;99.90
32446;DHT22;18899;50.748;7.102;2023-04-28T07:37:52;16.70;99.90
32446;DHT22;18899;50.748;7.102;2023-04-28T07:40:19;16.70;99.90
32446;DHT22;18899;50.748;7.102;2023-04-28T07:42:45;16.60;99.90
32446;DHT22;18899;50.748;7.102;2023-04-28T07:45:11;16.60;99.90
32446;DHT22;18899;50.748;7.102;2023-04-28T07:47:37;16.60;99.90
32446;DHT22;18899;50.748;7.102;2023-04-28T07:50:03;16.40;99.90
32446;DHT22;18899;50.748;7.102;2023-04-28T07:52:30;16.40;99.90
32446;DHT22;18899;50.748;7.102;2023-04-28T07:54:56;16.30;99.90
32446;DHT22;18899;50.748;7.102;2023-04-28T07:57:22;16.10;99.90
32446;DHT22;18899;50.748;7.102;2023-04-28T07:59:47;15.90;99.90
32446;DHT22;18899;50.748;7.102;2023-04-28T08:02:13;15.80;99.90
32446;DHT22;18899;50.748;7.102;2023-04-28T08:04:39;16.10;99.90
32446;DHT22;18899;50.748;7.102;2023-04-28T08:07:05;16.30;99.90
32446;DHT22;18899;50.748;7.102;2023-04-28T08:09:30;16.30;99.90
32446;DHT22;18899;50.748;7.102;2023-04-28T08:11:56;16.40;99.90
32446;DHT22;18899;50.748;7.102;2023-04-28T08:14:23;16.40;99.90
32446;DHT22;18899;50.748;7.102;2023-04-28T08:16:49;16.30;99.90
32446;DHT22;18899;50.748;7.102;2023-04-28T08:19:15;16.60;99.90
32446;DHT22;18899;50.748;7.102;2023-04-28T08:21:41;17.10;99.90
32446;DHT22;18899;50.748;7.102;2023-04-28T08:24:06;18.00;99.90
32446;DHT22;18899;50.748;7.102;2023-04-28T08:26:35;18.50;99.90
32446;DHT22;18899;50.748;7.102;2023-04-28T08:29:01;18.70;99.90
32446;DHT22;18899;50.748;7.102;2023-04-28T08:31:26;19.20;99.90
32446;DHT22;18899;50.748;7.102;2023-04-28T08:33:52;19.70;99.90
32446;DHT22;18899;50.748;7.102;2023-04-28T08:36:18;20.00;99.90
32446;DHT22;18899;50.748;7.102;2023-04-28T08:38:44;19.70;99.90
32446;DHT22;18899;50.748;7.102;2023-04-28T08:41:14;19.30;99.90
32446;DHT22;18899;50.748;7.102;2023-04-28T08:43:40;19.10;99.90
32446;DHT22;18899;50.748;7.102;2023-04-28T08:46:08;18.70;99.90
32446;DHT22;18899;50.748;7.102;2023-04-28T08:48:41;18.70;99.90
32446;DHT22;18899;50.748;7.102;2023-04-28T08:51:14;18.50;99.90
32446;DHT22;18899;50.748;7.102;2023-04-28T08:53:44;18.50;99.90
32446;DHT22;18899;50.748;7.102;2023-04-28T08:56:14;18.50;99.90
32446;DHT22;18899;50.748;7.102;2023-04-28T08:58:41;18.60;99.90
32446;DHT22;18899;50.748;7.102;2023-04-28T09:01:07;18.40;99.90
32446;DHT22;18899;50.748;7.102;2023-04-28T09:03:33;18.40;99.90
32446;DHT22;18899;50.748;7.102;2023-04-28T09:06:00;17.90;99.90
32446;DHT22;18899;50.748;7.102;2023-04-28T09:08:26;17.90;99.90
32446;DHT22;18899;50.748;7.102;2023-04-28T09:11:08;17.90;99.90
32446;DHT22;18899;50.748;7.102;2023-04-28T09:13:35;17.70;99.90
32446;DHT22;18899;50.748;7.102;2023-04-28T09:16:01;17.30;99.90
32446;DHT22;18899;50.748;7.102;2023-04-28T09:18:28;17.30;99.90
32446;DHT22;18899;50.748;7.102;2023-04-28T09:21:05;17.40;99.90
32446;DHT22;18899;50.748;7.102;2023-04-28T09:23:31;17.20;99.90
32446;DHT22;18899;50.748;7.102;2023-04-28T09:26:04;17.00;99.90
32446;DHT22;18899;50.748;7.102;2023-04-28T09:28:31;17.00;99.90
32446;DHT22;18899;50.748;7.102;2023-04-28T09:30:57;17.10;99.90
32446;DHT22;18899;50.748;7.102;2023-04-28T09:33:24;17.20;99.90
32446;DHT22;18899;50.748;7.102;2023-04-28T09:35:49;17.30;99.90
32446;DHT22;18899;50.748;7.102;2023-04-28T09:38:16;17.50;99.90
32446;DHT22;18899;50.748;7.102;2023-04-28T09:40:58;18.10;99.90
32446;DHT22;18899;50.748;7.102;2023-04-28T09:43:29;18.60;99.90
32446;DHT22;18899;50.748;7.102;2023-04-28T09:45:56;18.90;99.90
32446;DHT22;18899;50.748;7.102;2023-04-28T09:48:33;18.70;99.90
32446;DHT22;18899;50.748;7.102;2023-04-28T09:51:01;18.50;99.90
32446;DHT22;18899;50.748;7.102;2023-04-28T09:53:27;18.20;99.90
32446;DHT22;18899;50.748;7.102;2023-04-28T09:55:55;18.50;99.90
32446;DHT22;18899;50.748;7.102;2023-04-28T09:58:22;18.40;99.90
32446;DHT22;18899;50.748;7.102;2023-04-28T10:00:52;18.30;99.90
32446;DHT22;18899;50.748;7.102;2023-04-28T10:03:23;18.50;99.90
32446;DHT22;18899;50.748;7.102;2023-04-28T10:05:49;18.20;99.90
32446;DHT22;18899;50.748;7.102;2023-04-28T10:08:20;18.20;99.90
32446;DHT22;18899;50.748;7.102;2023-04-28T10:10:51;18.30;99.90
32446;DHT22;18899;50.748;7.102;2023-04-28T10:13:19;18.00;99.90
32446;DHT22;18899;50.748;7.102;2023-04-28T10:15:46;17.90;99.90
32446;DHT22;18899;50.748;7.102;2023-04-28T10:18:12;18.00;99.90
32446;DHT22;18899;50.748;7.102;2023-04-28T10:20:41;17.90;99.90
32446;DHT22;18899;50.748;7.102;2023-04-28T10:23:40;18.00;99.90
32446;DHT22;18899;50.748;7.102;2023-04-28T10:26:12;18.40;99.90
32446;DHT22;18899;50.748;7.102;2023-04-28T10:28:49;18.50;99.90
32446;DHT22;18899;50.748;7.102;2023-04-28T10:31:17;18.70;99.90
32446;DHT22;18899;50.748;7.102;2023-04-28T10:33:45;18.50;99.90
32446;DHT22;18899;50.748;7.102;2023-04-28T10:36:17;18.60;99.90
32446;DHT22;18899;50.748;7.102;2023-04-28T10:39:09;18.70;99.90
32446;DHT22;18899;50.748;7.102;2023-04-28T10:41:38;19.00;99.90
32446;DHT22;18899;50.748;7.102;2023-04-28T10:47:04;18.60;99.90
32446;DHT22;18899;50.748;7.102;2023-04-28T10:55:37;18.70;99.90
32446;DHT22;18899;50.748;7.102;2023-04-28T11:00:43;20.00;99.90
32446;DHT22;18899;50.748;7.102;2023-04-28T11:03:41;20.70;99.90
32446;DHT22;18899;50.748;7.102;2023-04-28T11:06:37;21.40;99.90
32446;DHT22;18899;50.748;7.102;2023-04-28T11:12:02;21.90;99.90
32446;DHT22;18899;50.748;7.102;2023-04-28T11:14:30;21.90;99.90
32446;DHT22;18899;50.748;7.102;2023-04-28T11:17:03;21.50;99.90
32446;DHT22;18899;50.748;7.102;2023-04-28T11:19:34;20.70;99.90
32446;DHT22;18899;50.748;7.102;2023-04-28T11:22:20;20.20;99.90
32446;DHT22;18899;50.748;7.102;2023-04-28T11:25:00;20.40;99.90
32446;DHT22;18899;50.748;7.102;2023-04-28T11:27:28;20.40;99.90
32446;DHT22;18899;50.748;7.102;2023-04-28T11:29:54;20.70;99.90
32446;DHT22;18899;50.748;7.102;2023-04-28T11:32:33;20.70;99.90
32446;DHT22;18899;50.748;7.102;2023-04-28T11:34:59;20.70;99.90
32446;DHT22;18899;50.748;7.102;2023-04-28T11:37:25;20.20;99.90
32446;DHT22;18899;50.748;7.102;2023-04-28T11:39:51;20.00;99.90
32446;DHT22;18899;50.748;7.102;2023-04-28T11:42:17;20.20;99.90
32446;DHT22;18899;50.748;7.102;2023-04-28T11:44:52;20.70;99.90
32446;DHT22;18899;50.748;7.102;2023-04-28T11:47:33;21.10;99.90
32446;DHT22;18899;50.748;7.102;2023-04-28T11:49:59;20.90;99.90
32446;DHT22;18899;50.748;7.102;2023-04-28T11:52:25;20.70;99.90
32446;DHT22;18899;50.748;7.102;2023-04-28T11:54:58;20.70;99.90
32446;DHT22;18899;50.748;7.102;2023-04-28T11:57:26;20.30;99.90
32446;DHT22;18899;50.748;7.102;2023-04-28T11:59:52;20.00;99.90
32446;DHT22;18899;50.748;7.102;2023-04-28T12:02:27;20.10;99.90
32446;DHT22;18899;50.748;7.102;2023-04-28T12:04:53;20.10;99.90
32446;DHT22;18899;50.748;7.102;2023-04-28T12:07:19;20.00;99.90
32446;DHT22;18899;50.748;7.102;2023-04-28T12:10:14;20.20;99.90
32446;DHT22;18899;50.748;7.102;2023-04-28T12:12:41;20.30;99.90
32446;DHT22;18899;50.748;7.102;2023-04-28T12:15:07;20.10;99.90
32446;DHT22;18899;50.748;7.102;2023-04-28T12:17:35;19.90;99.90
32446;DHT22;18899;50.748;7.102;2023-04-28T12:20:05;19.60;99.90
32446;DHT22;18899;50.748;7.102;2023-04-28T12:22:51;19.80;99.90
32446;DHT22;18899;50.748;7.102;2023-04-28T12:25:17;19.80;99.90
32446;DHT22;18899;50.748;7.102;2023-04-28T12:28:03;20.00;99.90
32446;DHT22;18899;50.748;7.102;2023-04-28T12:30:31;19.90;99.90
32446;DHT22;18899;50.748;7.102;2023-04-28T12:32:57;20.30;99.90
32446;DHT22;18899;50.748;7.102;2023-04-28T12:35:24;20.60;99.90
32446;DHT22;18899;50.748;7.102;2023-04-28T12:37:51;21.00;99.90
32446;DHT22;18899;50.748;7.102;2023-04-28T12:40:17;20.90;99.90
32446;DHT22;18899;50.748;7.102;2023-04-28T12:42:43;20.90;99.90
32446;DHT22;18899;50.748;7.102;2023-04-28T12:45:09;20.80;99.90
32446;DHT22;18899;50.748;7.102;2023-04-28T12:47:35;20.80;99.90
32446;DHT22;18899;50.748;7.102;2023-04-28T12:50:02;20.60;99.90
32446;DHT22;18899;50.748;7.102;2023-04-28T12:52:27;20.40;99.90
32446;DHT22;18899;50.748;7.102;2023-04-28T12:54:53;20.20;99.90
32446;DHT22;18899;50.748;7.102;2023-04-28T12:57:19;20.20;99.90
32446;DHT22;18899;50.748;7.102;2023-04-28T12:59:45;20.10;99.90
32446;DHT22;18899;50.748;7.102;2023-04-28T13:02:12;20.40;99.90
32446;DHT22;18899;50.748;7.102;2023-04-28T13:04:39;20.50;99.90
32446;DHT22;18899;50.748;7.102;2023-04-28T13:07:07;20.70;99.90
32446;DHT22;18899;50.748;7.102;2023-04-28T13:09:33;21.00;99.90
32446;DHT22;18899;50.748;7.102;2023-04-28T13:11:58;21.20;99.90
32446;DHT22;18899;50.748;7.102;2023-04-28T13:14:25;21.20;99.90
32446;DHT22;18899;50.748;7.102;2023-04-28T13:16:51;21.10;99.90
32446;DHT22;18899;50.748;7.102;2023-04-28T13:19:17;20.90;99.90
32446;DHT22;18899;50.748;7.102;2023-04-28T13:21:43;20.90;99.90
32446;DHT22;18899;50.748;7.102;2023-04-28T13:24:09;20.90;99.90
32446;DHT22;18899;50.748;7.102;2023-04-28T13:26:35;20.60;99.90
32446;DHT22;18899;50.748;7.102;2023-04-28T13:29:02;20.40;99.90
32446;DHT22;18899;50.748;7.102;2023-04-28T13:31:29;20.30;99.90
32446;DHT22;18899;50.748;7.102;2023-04-28T13:33:55;20.20;99.90
32446;DHT22;18899;50.748;7.102;2023-04-28T13:36:21;20.00;99.90
32446;DHT22;18899;50.748;7.102;2023-04-28T13:38:46;19.90;99.90
32446;DHT22;18899;50.748;7.102;2023-04-28T13:41:14;20.10;99.90
32446;DHT22;18899;50.748;7.102;2023-04-28T13:43:40;20.20;99.90
32446;DHT22;18899;50.748;7.102;2023-04-28T13:46:06;20.50;99.90
32446;DHT22;18899;50.748;7.102;2023-04-28T13:48:33;20.90;99.90
32446;DHT22;18899;50.748;7.102;2023-04-28T13:51:00;21.10;99.90
32446;DHT22;18899;50.748;7.102;2023-04-28T13:53:26;21.10;99.90
32446;DHT22;18899;50.748;7.102;2023-04-28T13:55:52;21.00;99.90
32446;DHT22;18899;50.748;7.102;2023-04-28T13:58:18;21.00;99.90
32446;DHT22;18899;50.748;7.102;2023-04-28T14:00:44;20.90;99.90
32446;DHT22;18899;50.748;7.102;2023-04-28T14:03:10;20.80;99.90
32446;DHT22;18899;50.748;7.102;2023-04-28T14:05:35;20.80;99.90
32446;DHT22;18899;50.748;7.102;2023-04-28T14:08:01;20.80;99.90
32446;DHT22;18899;50.748;7.102;2023-04-28T14:10:28;21.00;99.90
32446;DHT22;18899;50.748;7.102;2023-04-28T14:12:53;21.40;99.90
32446;DHT22;18899;50.748;7.102;2023-04-28T14:15:19;21.40;99.90
32446;DHT22;18899;50.748;7.102;2023-04-28T14:17:45;21.40;99.90
32446;DHT22;18899;50.748;7.102;2023-04-28T14:20:10;21.50;99.90
32446;DHT22;18899;50.748;7.102;2023-04-28T14:22:39;21.20;99.90
32446;DHT22;18899;50.748;7.102;2023-04-28T14:25:05;21.10;99.90
32446;DHT22;18899;50.748;7.102;2023-04-28T14:27:32;20.80;99.90
32446;DHT22;18899;50.748;7.102;2023-04-28T14:29:58;20.70;99.90
32446;DHT22;18899;50.748;7.102;2023-04-28T14:32:24;20.50;99.90
32446;DHT22;18899;50.748;7.102;2023-04-28T14:34:49;20.60;99.90
32446;DHT22;18899;50.748;7.102;2023-04-28T14:37:16;20.80;99.90
32446;DHT22;18899;50.748;7.102;2023-04-28T14:39:42;21.00;99.90
32446;DHT22;18899;50.748;7.102;2023-04-28T14:42:08;21.00;99.90
32446;DHT22;18899;50.748;7.102;2023-04-28T14:44:34;21.40;99.90
32446;DHT22;18899;50.748;7.102;2023-04-28T14:47:01;21.70;99.90
32446;DHT22;18899;50.748;7.102;2023-04-28T14:49:27;22.00;99.90
32446;DHT22;18899;50.748;7.102;2023-04-28T14:51:52;22.10;99.90
32446;DHT22;18899;50.748;7.102;2023-04-28T14:54:18;22.10;99.90
32446;DHT22;18899;50.748;7.102;2023-04-28T14:56:44;21.90;99.90
32446;DHT22;18899;50.748;7.102;2023-04-28T14:59:09;21.90;99.90
32446;DHT22;18899;50.748;7.102;2023-04-28T15:01:36;21.90;99.90
32446;DHT22;18899;50.748;7.102;2023-04-28T15:04:01;21.80;99.90
32446;DHT22;18899;50.748;7.102;2023-04-28T15:06:28;21.60;99.90
32446;DHT22;18899;50.748;7.102;2023-04-28T15:08:53;21.70;99.90
32446;DHT22;18899;50.748;7.102;2023-04-28T15:11:19;21.60;99.90
32446;DHT22;18899;50.748;7.102;2023-04-28T15:13:45;21.70;99.90
32446;DHT22;18899;50.748;7.102;2023-04-28T15:16:10;21.80;99.90
32446;DHT22;18899;50.748;7.102;2023-04-28T15:18:36;22.00;99.90
32446;DHT22;18899;50.748;7.102;2023-04-28T15:21:02;22.10;99.90
32446;DHT22;18899;50.748;7.102;2023-04-28T15:23:28;22.30;99.90
32446;DHT22;18899;50.748;7.102;2023-04-28T15:25:53;22.10;99.90
32446;DHT22;18899;50.748;7.102;2023-04-28T15:28:19;22.00;99.90
32446;DHT22;18899;50.748;7.102;2023-04-28T15:30:45;22.00;99.90
32446;DHT22;18899;50.748;7.102;2023-04-28T15:33:10;21.80;99.90
32446;DHT22;18899;50.748;7.102;2023-04-28T15:35:45;21.80;99.90
32446;DHT22;18899;50.748;7.102;2023-04-28T15:38:11;21.90;99.90
32446;DHT22;18899;50.748;7.102;2023-04-28T15:40:40;21.70;99.90
32446;DHT22;18899;50.748;7.102;2023-04-28T15:43:06;21.30;99.90